Flight Track Log - Related Links

Times and Time Zones

All times are in EDT time to prevent confusion due to time zone crossing. See the AAR268 flight status page for this flight to view local times or setup timezone preferences in your user account.

Time Position Orientation Groundspeed Altitude Reporting Facility
EDT Latitude Longitude Course Direction KTS MPH feet Rate Location/Type
Sun 10:39:35 AM 32.9323 -97.0575 North 159 183 2,300  Level FlightAware ADS-B
Sun 10:39:56 AM 32.9472 -97.0570 North 160 184 3,000 2,049 Climbing FlightAware ADS-B
Sun 10:40:16 AM 32.9626 -97.0568 North 164 189 3,700 1,667 Climbing FlightAware ADS-B
Sun 10:40:32 AM 32.9752 -97.0572 358° North 181 208 4,000 828 Climbing FlightAware ADS-B
Sun 10:40:45 AM 32.9849 -97.0626 335° Northwest 200 230 4,100 571 Climbing FlightAware ADS-B
Sun 10:40:53 AM 32.9908 -97.0693 316° Northwest 215 247 4,200 1,071 Climbing FlightAware ADS-B
Sun 10:41:13 AM 33.0065 -97.0888 314° West 243 280 4,600 1,610 Climbing FlightAware ADS-B
Sun 10:41:34 AM 33.0216 -97.1097 311° West 260 299 5,300 2,276 Climbing FlightAware ADS-B
Sun 10:41:42 AM 33.0266 -97.1213 297° West 266 306 5,700 3,000 Climbing FlightAware ADS-B
Sun 10:41:54 AM 33.0299 -97.1385 283° West 270 311 6,300 2,727 Climbing FlightAware ADS-B
Sun 10:42:15 AM 33.0325 -97.1675 276° West 275 316 7,200 2,927 Climbing FlightAware ADS-B
Sun 10:42:35 AM 33.0356 -97.2004 276° West 278 320 8,300 3,073 Climbing FlightAware ADS-B
Sun 10:42:56 AM 33.0385 -97.2312 276° West 279 321 9,300 2,195 Climbing FlightAware ADS-B
Sun 10:43:16 AM 33.0414 -97.2616 277° West 279 321 9,800 973 Climbing FlightAware ADS-B
Sun 10:43:33 AM 33.0440 -97.2880 277° West 289 333 9,900 735 Climbing FlightAware ADS-B
Sun 10:44:05 AM 33.0495 -97.3442 277° West 336 387 10,400 1,315 Climbing FlightAware ADS-B
Sun 10:44:46 AM 33.0570 -97.4245 276° West 375 432 11,500 2,308 Climbing FlightAware ADS-B
Sun 10:45:23 AM 33.0642 -97.5030 276° West 390 449 13,400 3,308 Climbing FlightAware ADS-B
Sun 10:46:04 AM 33.0725 -97.5906 276° West 403 464 15,800 4,645 Climbing FlightAware ADS-B
Sun 10:46:56 AM 33.0830 -97.7060 276° West 361 415 20,600 4,295 Climbing FlightAware ADS-B
Sun 10:47:39 AM 33.1020 -97.7860 286° West 367 422 22,600 2,595 Climbing FlightAware ADS-B
Sun 10:48:10 AM 33.1220 -97.8490 291° West 375 432 23,800 2,530 Climbing FlightAware ADS-B
Sun 10:49:02 AM 33.1540 -97.9510 291° West 384 442 26,100 2,722 Climbing FlightAware ADS-B
Sun 10:49:47 AM 33.1810 -98.0380 290° West 386 444 28,200 2,260 Climbing FlightAware ADS-B
Sun 10:50:19 AM 33.2020 -98.1050 291° West 405 466 29,000 1,403 Climbing FlightAware ADS-B
Sun 10:51:04 AM 33.2330 -98.2040 291° West 427 491 30,000 1,535 Climbing FlightAware ADS-B
Sun 10:51:45 AM 33.2610 -98.2930 291° West 437 503 31,200 2,077 Climbing FlightAware ADS-B
Sun 10:52:22 AM 33.2870 -98.3780 290° West 435 501 32,700 2,430 Climbing FlightAware ADS-B
Sun 10:53:04 AM 33.3150 -98.4710 290° West 429 494 34,400 2,188 Climbing FlightAware ADS-B
Sun 10:53:47 AM 33.3440 -98.5620 291° West 421 484 35,800 2,069 Climbing FlightAware ADS-B
Sun 10:54:31 AM 33.3750 -98.6630 290° West 411 473 37,400 1,451 Climbing FlightAware ADS-B
Sun 10:55:18 AM 33.4030 -98.7560 290° West 411 473 38,000 424 Climbing FlightAware ADS-B
Sun 10:55:56 AM 33.4290 -98.8400 290° West 411 473 38,000  Level FlightAware ADS-B
Sun 10:56:39 AM 33.4580 -98.9360 290° West 409 471 38,000  Level FlightAware ADS-B
Sun 10:57:27 AM 33.4850 -99.0270 290° West 409 471 38,000  Level FlightAware ADS-B
Sun 10:58:03 AM 33.5040 -99.0930 289° West 409 471 38,000  Level FlightAware ADS-B
Sun 10:58:49 AM 33.5630 -99.2010 303° West 413 475 38,000  Level FlightAware ADS-B
Sun 10:59:47 AM 33.6310 -99.3060 308° West 414 476 38,000  Level FlightAware ADS-B
Sun 11:00:29 AM 33.6800 -99.3800 309° West 413 475 38,000  Level FlightAware ADS-B
Sun 11:01:02 AM 33.7180 -99.4390 308° West 413 475 38,000  Level FlightAware ADS-B
Sun 11:01:46 AM 33.7720 -99.5210 308° West 414 476 38,000  Level FlightAware ADS-B
Sun 11:02:32 AM 33.8250 -99.6030 308° West 414 476 38,000  Level FlightAware ADS-B
Sun 11:03:12 AM 33.8720 -99.6760 308° West 414 476 38,000  Level FlightAware ADS-B
Sun 11:03:54 AM 33.9230 -99.7540 308° West 415 478 38,000  Level FlightAware ADS-B
Sun 11:04:42 AM 33.9790 -99.8400 308° West 416 479 38,000  Level FlightAware ADS-B
Sun 11:05:30 AM 34.0350 -99.9280 308° West 416 479 38,000  Level FlightAware ADS-B
Sun 11:06:07 AM 34.0780 -99.9950 308° West 416 479 38,000  Level FlightAware ADS-B
Sun 11:06:48 AM 34.1270 -100.0710 308° West 416 479 38,000  Level FlightAware ADS-B
Sun 11:07:25 AM 34.1700 -100.1370 308° West 415 478 38,000  Level FlightAware ADS-B
Sun 11:07:58 AM 34.2090 -100.1990 307° West 414 476 38,000  Level FlightAware ADS-B
Sun 11:08:26 AM 34.2430 -100.2510 308° West 414 476 38,000  Level FlightAware ADS-B
Sun 11:09:09 AM 34.2920 -100.3280 308° West 414 476 38,000  Level FlightAware ADS-B
Sun 11:09:46 AM 34.3360 -100.3980 307° West 415 478 38,000  Level FlightAware ADS-B
Sun 11:10:25 AM 34.3810 -100.4680 308° West 416 479 38,000  Level FlightAware ADS-B
Sun 11:11:01 AM 34.4240 -100.5360 307° West 418 481 38,000  Level FlightAware ADS-B
Sun 11:11:50 AM 34.4820 -100.6260 308° West 418 481 38,000  Level FlightAware ADS-B
Sun 11:12:39 AM 34.5400 -100.7190 307° West 419 482 38,000  Level FlightAware ADS-B
Sun 11:13:18 AM 34.5850 -100.7910 307° West 420 483 38,000  Level FlightAware ADS-B
Sun 11:14:06 AM 34.6420 -100.8810 308° West 421 484 38,000  Level FlightAware ADS-B
Sun 11:14:42 AM 34.6850 -100.9490 308° West 421 484 38,000  Level FlightAware ADS-B
Sun 11:15:20 AM 34.7280 -101.0180 307° West 420 483 38,000  Level FlightAware ADS-B
Sun 11:16:31 AM 34.8130 -101.1540 307° West 421 484 38,000  Level FlightAware ADS-B
Sun 11:17:08 AM 34.8550 -101.2210 307° West 421 484 38,000  Level FlightAware ADS-B
Sun 11:17:46 AM 34.9010 -101.2950 307° West 420 483 38,000  Level FlightAware ADS-B
Sun 11:18:30 AM 34.9510 -101.3770 307° West 419 482 38,000  Level FlightAware ADS-B
Sun 11:19:18 AM 35.0040 -101.4630 307° West 418 481 38,000  Level FlightAware ADS-B
Sun 11:19:54 AM 35.0480 -101.5330 308° West 418 481 38,000  Level FlightAware ADS-B
Sun 11:21:11 AM 35.1380 -101.6800 307° West 418 481 38,000  Level FlightAware ADS-B
Sun 11:21:49 AM 35.1820 -101.7520 307° West 416 479 38,000  Level FlightAware ADS-B
Sun 11:22:28 AM 35.2280 -101.8270 307° West 416 479 38,000  Level FlightAware ADS-B
Sun 11:23:16 AM 35.2830 -101.9160 307° West 417 480 38,000  Level FlightAware ADS-B
Sun 11:23:49 AM 35.3210 -101.9790 306° West 418 481 38,000  Level FlightAware ADS-B
Sun 11:24:27 AM 35.3620 -102.0470 306° West 419 482 38,000  Level FlightAware ADS-B
Sun 11:25:03 AM 35.4050 -102.1180 307° West 419 482 38,000  Level FlightAware ADS-B
Sun 11:25:48 AM 35.4580 -102.2050 307° West 420 483 38,000  Level FlightAware ADS-B
Sun 11:26:39 AM 35.5170 -102.3040 306° West 422 486 38,000  Level FlightAware ADS-B
Sun 11:27:15 AM 35.5580 -102.3720 307° West 422 486 38,000  Level FlightAware ADS-B
Sun 11:27:53 AM 35.6020 -102.4450 307° West 422 486 38,000  Level FlightAware ADS-B
Sun 11:28:37 AM 35.6520 -102.5290 306° West 423 487 38,000  Level FlightAware ADS-B
Sun 11:29:14 AM 35.6960 -102.6020 307° West 424 488 38,000  Level FlightAware ADS-B
Sun 11:29:52 AM 35.7400 -102.6770 306° West 425 489 38,000  Level FlightAware ADS-B
Sun 11:30:34 AM 35.7880 -102.7580 306° West 425 489 38,000  Level FlightAware ADS-B
Sun 11:31:07 AM 35.8260 -102.8220 306° West 425 489 38,000  Level FlightAware ADS-B
Sun 11:31:51 AM 35.8780 -102.9090 306° West 426 490 38,000  Level FlightAware ADS-B
Sun 11:32:15 AM 35.9060 -102.9560 306° West 426 490 38,000  Level FlightAware ADS-B
Sun 11:32:52 AM 35.9480 -103.0280 306° West 425 489 38,000  Level FlightAware ADS-B
Sun 11:33:20 AM 35.9810 -103.0840 306° West 425 489 38,000  Level FlightAware ADS-B
Sun 11:33:53 AM 36.0190 -103.1490 306° West 424 488 38,000  Level FlightAware ADS-B
Sun 11:35:00 AM 36.0950 -103.2790 306° West 423 487 38,000  Level FlightAware ADS-B
Sun 11:35:42 AM 36.1430 -103.3610 306° West 422 486 38,000  Level FlightAware ADS-B
Sun 11:36:14 AM 36.1800 -103.4250 306° West 422 486 38,000  Level FlightAware ADS-B
Sun 11:36:53 AM 36.2240 -103.5010 306° West 421 484 38,000  Level FlightAware ADS-B
Sun 11:37:36 AM 36.2730 -103.5850 306° West 422 486 38,000  Level FlightAware ADS-B
Sun 11:38:09 AM 36.3100 -103.6500 305° West 423 487 38,000  Level FlightAware ADS-B
Sun 11:38:52 AM 36.3600 -103.7360 306° West 424 488 38,000  Level FlightAware ADS-B
Sun 11:39:35 AM 36.4090 -103.8210 306° West 426 490 38,000  Level FlightAware ADS-B
Sun 11:40:25 AM 36.4660 -103.9200 306° West 426 490 38,000  Level FlightAware ADS-B
Sun 11:40:58 AM 36.5030 -103.9860 305° West 426 490 38,000  Level FlightAware ADS-B
Sun 11:41:38 AM 36.5490 -104.0670 305° West 427 491 38,000  Level FlightAware ADS-B
Sun 11:42:18 AM 36.5940 -104.1450 306° West 428 493 38,000  Level FlightAware ADS-B
Sun 11:42:55 AM 36.6370 -104.2220 305° West 428 493 38,000  Level FlightAware ADS-B
Sun 11:43:38 AM 36.6860 -104.3080 305° West 429 494 38,000  Level FlightAware ADS-B
Sun 11:44:13 AM 36.7240 -104.3760 305° West 429 494 38,000  Level FlightAware ADS-B
Sun 11:45:12 AM 36.7930 -104.4970 305° West 431 496 38,000  Level FlightAware ADS-B
Sun 11:45:48 AM 36.8340 -104.5720 304° West 431 496 38,000  Level FlightAware ADS-B
Sun 11:46:23 AM 36.8740 -104.6430 305° West 430 495 38,000  Level FlightAware ADS-B
Sun 11:46:57 AM 36.9120 -104.7110 305° West 431 496 38,000  Level FlightAware ADS-B
Sun 11:47:40 AM 36.9610 -104.7990 305° West 433 498 38,000  Level FlightAware ADS-B
Sun 11:48:24 AM 37.0120 -104.8900 305° West 436 502 38,000  Level FlightAware ADS-B
Sun 11:49:09 AM 37.0620 -104.9820 304° West 438 504 38,000  Level FlightAware ADS-B
Sun 11:49:53 AM 37.1140 -105.0750 305° West 438 504 38,000  Level FlightAware ADS-B
Sun 11:50:30 AM 37.1560 -105.1530 304° West 436 502 38,000  Level FlightAware ADS-B
Sun 11:51:03 AM 37.1940 -105.2210 305° West 434 499 38,000  Level FlightAware ADS-B
Sun 11:51:39 AM 37.2350 -105.2960 304° West 431 496 38,000  Level FlightAware ADS-B
Sun 11:52:11 AM 37.2710 -105.3620 304° West 431 496 38,000  Level FlightAware ADS-B
Sun 11:52:48 AM 37.3130 -105.4380 305° West 431 496 38,000  Level FlightAware ADS-B
Sun 11:53:12 AM 37.3390 -105.4880 303° West 430 495 38,000  Level FlightAware ADS-B
Sun 11:54:08 AM 37.4020 -105.6030 305° West 431 496 38,000  Level FlightAware ADS-B
Sun 11:54:45 AM 37.4450 -105.6820 304° West 432 497 38,000  Level FlightAware ADS-B
Sun 11:55:20 AM 37.4830 -105.7530 304° West 432 497 38,000  Level FlightAware ADS-B
Sun 11:55:57 AM 37.5240 -105.8300 304° West 433 498 38,000  Level FlightAware ADS-B
Sun 11:56:46 AM 37.5794 -105.9327 304° West 435 501 38,000  Level FlightAware ADS-B
Sun 11:57:19 AM 37.6170 -106.0020 304° West 435 501 38,000  Level FlightAware ADS-B
Sun 11:57:50 AM 37.6521 -106.0685 304° West 437 503 38,000  Level FlightAware ADS-B
Sun 11:58:27 AM 37.6930 -106.1460 304° West 436 502 38,000  Level FlightAware ADS-B
Sun 11:59:08 AM 37.7400 -106.2330 304° West 437 503 38,000  Level FlightAware ADS-B
Sun 12:00:05 PM 37.8035 -106.3536 304° West 436 502 38,000  Level FlightAware ADS-B
Sun 12:00:35 PM 37.8352 -106.4133 304° West 439 505 38,000  Level FlightAware ADS-B
Sun 12:01:07 PM 37.8729 -106.4847 304° West 439 505 38,000  Level FlightAware ADS-B
Sun 12:01:42 PM 37.9138 -106.5624 304° West 439 505 38,000  Level FlightAware ADS-B
Sun 12:03:02 PM 38.0016 -106.7295 304° West 439 505 38,000  Level FlightAware ADS-B (EHAM / AMS)
Sun 12:03:57 PM 38.0630 -106.8480 303° West 439 505 38,000  Level FlightAware ADS-B
Sun 12:04:38 PM 38.1087 -106.9355 304° West 440 506 38,000  Level FlightAware ADS-B (EHAM / AMS)
Sun 12:05:10 PM 38.1456 -107.0063 304° West 440 506 38,000  Level FlightAware ADS-B (EHAM / AMS)
Sun 12:05:51 PM 38.1913 -107.0944 303° West 439 505 38,000  Level FlightAware ADS-B (KGUC)
Sun 12:06:31 PM 38.2151 -107.1400 304° West 440 506 38,000  Level FlightAware ADS-B (KGUC)
Sun 12:07:15 PM 38.2812 -107.2683 303° West 441 507 38,000  Level FlightAware ADS-B (EHAM / AMS)
Sun 12:07:47 PM 38.3203 -107.3446 303° West 442 509 38,000  Level FlightAware ADS-B (KGUC)
Sun 12:08:20 PM 38.3574 -107.4172 303° West 442 509 38,000  Level FlightAware ADS-B (EHAM / AMS)
Sun 12:09:07 PM 38.4102 -107.5205 303° West 442 509 38,000  Level FlightAware ADS-B (KGUC)
Sun 12:10:01 PM 38.4689 -107.6352 303° West 440 506 38,000  Level FlightAware ADS-B
Sun 12:10:36 PM 38.5083 -107.7130 303° West 438 504 38,000  Level FlightAware ADS-B (KGUC)
Sun 12:11:06 PM 38.5425 -107.7802 303° West 439 505 38,000  Level FlightAware ADS-B (KGUC)
Sun 12:11:39 PM 38.5783 -107.8508 303° West 439 505 38,000  Level FlightAware ADS-B (KGUC)
Sun 12:12:18 PM 38.6130 -107.9198 303° West 440 506 38,000  Level FlightAware ADS-B (KGUC)
Sun 12:12:49 PM 38.6524 -107.9979 303° West 441 507 38,000  Level FlightAware ADS-B
Sun 12:13:20 PM 38.6856 -108.0635 303° West 442 509 38,000  Level FlightAware ADS-B (KGUC)
Sun 12:13:50 PM 38.7194 -108.1311 303° West 443 510 38,000  Level FlightAware ADS-B (KGUC)
Sun 12:14:23 PM 38.7558 -108.2040 303° West 444 511 38,000  Level FlightAware ADS-B
Sun 12:15:01 PM 38.7994 -108.2910 303° West 445 512 38,000  Level FlightAware ADS-B
Sun 12:15:31 PM 38.8204 -108.3334 303° West 445 512 38,000  Level FlightAware ADS-B (KGUC)
Sun 12:16:03 PM 38.8688 -108.4303 303° West 443 510 38,000  Level FlightAware ADS-B
Sun 12:16:36 PM 38.9060 -108.5051 303° West 445 512 38,000  Level FlightAware ADS-B
Sun 12:16:49 PM 38.8959 -108.4847 122° Southeast 444 511 38,000  Level FlightAware ADS-B (KGUC)
Sun 12:17:26 PM 38.9610 -108.6160 303° West 445 512 38,000  Level FlightAware ADS-B (KGUC)
Sun 12:18:01 PM 38.9963 -108.6875 302° West 445 512 38,000  Level FlightAware ADS-B
Sun 12:18:39 PM 39.0383 -108.7716 303° West 446 513 38,000  Level FlightAware ADS-B (KGUC)
Sun 12:19:25 PM 39.0978 -108.8701 308° West 448 516 38,000  Level FlightAware ADS-B
Sun 12:20:08 PM 39.1502 -108.9667 305° West 449 517 38,000  Level FlightAware ADS-B
Sun 12:20:52 PM 39.2038 -109.0615 306° West 452 520 38,000  Level FlightAware ADS-B
Sun 12:21:27 PM 39.2481 -109.1367 307° West 453 521 38,000  Level FlightAware ADS-B (KGUC)
Sun 12:21:58 PM 39.2862 -109.2014 307° West 454 522 38,000  Level FlightAware ADS-B
Sun 12:22:29 PM 39.3269 -109.2704 307° West 455 524 38,000  Level FlightAware ADS-B (KGUC)
Sun 12:23:08 PM 39.3737 -109.3504 307° West 455 524 38,000  Level FlightAware ADS-B
Sun 12:23:40 PM 39.4170 -109.4251 307° West 455 524 38,000  Level FlightAware ADS-B
Sun 12:24:12 PM 39.4582 -109.4963 307° West 455 524 38,000  Level FlightAware ADS-B
Sun 12:24:44 PM 39.4967 -109.5630 307° West 455 524 38,000  Level FlightAware ADS-B
Sun 12:25:21 PM 39.5450 -109.6471 307° West 455 524 38,000  Level FlightAware ADS-B
Sun 12:26:17 PM 39.6133 -109.7665 307° West 454 522 38,000  Level FlightAware ADS-B
Sun 12:26:49 PM 39.6533 -109.8363 307° West 454 522 38,000  Level FlightAware ADS-B
Sun 12:27:28 PM 39.6963 -109.9116 307° West 453 521 38,000  Level FlightAware ADS-B
Sun 12:28:01 PM 39.7423 -109.9924 307° West 455 524 38,000  Level FlightAware ADS-B
Sun 12:28:33 PM 39.7842 -110.0660 307° West 455 524 38,000  Level FlightAware ADS-B
Sun 12:29:10 PM 39.8260 -110.1397 306° West 456 525 38,000  Level FlightAware ADS-B
Sun 12:29:41 PM 39.8681 -110.2141 306° West 459 528 38,000  Level FlightAware ADS-B
Sun 12:30:14 PM 39.9105 -110.2891 306° West 460 529 38,000  Level FlightAware ADS-B
Sun 12:30:44 PM 39.9484 -110.3562 306° West 459 528 38,000  Level FlightAware ADS-B
Sun 12:31:17 PM 39.9893 -110.4291 306° West 458 527 38,000  Level FlightAware ADS-B
Sun 12:31:50 PM 40.0286 -110.4990 306° West 457 526 38,000  Level FlightAware ADS-B
Sun 12:32:27 PM 40.0743 -110.5806 306° West 458 527 38,000  Level FlightAware ADS-B
Sun 12:32:49 PM 40.1037 -110.6330 306° West 458 527 38,000  Level FlightAware ADS-B
Sun 12:32:59 PM 40.1147 -110.6534 305° West 458 527 38,000  Level FlightAware ADS-B
Sun 12:33:19 PM 40.1415 -110.7010 306° West 458 527 38,000  Level FlightAware ADS-B
Sun 12:33:35 PM 40.1574 -110.7298 306° West 458 527 38,000  Level FlightAware ADS-B
Sun 12:33:50 PM 40.1804 -110.7710 306° West 457 526 38,000  Level FlightAware ADS-B
Sun 12:34:20 PM 40.2176 -110.8380 306° West 456 525 38,000  Level FlightAware ADS-B
Sun 12:34:51 PM 40.2552 -110.9050 306° West 454 522 38,000  Level FlightAware ADS-B
Sun 12:34:57 PM 40.2619 -110.9171 306° West 453 521 38,000  Level FlightAware ADS-B
Sun 12:35:21 PM 40.2930 -110.9730 306° West 452 520 38,000  Level FlightAware ADS-B
Sun 12:35:40 PM 40.3150 -111.0135 305° West 453 521 38,000  Level FlightAware ADS-B
Sun 12:35:51 PM 40.3295 -111.0400 306° West 453 521 38,000  Level FlightAware ADS-B
Sun 12:35:59 PM 40.3382 -111.0560 306° West 454 522 38,000  Level FlightAware ADS-B
Sun 12:36:09 PM 40.3506 -111.0784 306° West 455 524 38,000  Level FlightAware ADS-B
Sun 12:36:23 PM 40.3678 -111.1100 305° West 455 524 38,000  Level FlightAware ADS-B
Sun 12:36:48 PM 40.3998 -111.1675 306° West 451 519 38,000  Level FlightAware ADS-B
Sun 12:36:53 PM 40.4054 -111.1780 305° West 455 524 38,000  Level FlightAware ADS-B
Sun 12:37:18 PM 40.4359 -111.2331 306° West 451 519 38,000  Level FlightAware ADS-B
Sun 12:37:24 PM 40.4436 -111.2470 306° West 456 525 38,000  Level FlightAware ADS-B
Sun 12:37:49 PM 40.4748 -111.3040 306° West 453 521 38,000  Level FlightAware ADS-B
Sun 12:37:54 PM 40.4808 -111.3150 306° West 457 526 38,000  Level FlightAware ADS-B
Sun 12:38:07 PM 40.4967 -111.3440 306° West 457 526 38,000  Level FlightAware ADS-B
Sun 12:38:24 PM 40.5178 -111.3830 305° West 457 526 38,000  Level FlightAware ADS-B
Sun 12:38:39 PM 40.5353 -111.4147 306° West 452 520 38,000  Level FlightAware ADS-B
Sun 12:38:55 PM 40.5559 -111.4520 306° West 457 526 38,000  Level FlightAware ADS-B
Sun 12:39:10 PM 40.5736 -111.4848 305° West 453 521 38,000  Level FlightAware ADS-B
Sun 12:39:26 PM 40.5931 -111.5210 305° West 457 526 38,000  Level FlightAware ADS-B
Sun 12:39:49 PM 40.6215 -111.5729 306° West 452 520 38,000  Level FlightAware ADS-B
Sun 12:39:56 PM 40.6299 -111.5890 305° West 456 525 38,000  Level FlightAware ADS-B
Sun 12:40:19 PM 40.6585 -111.6413 306° West 452 520 38,000  Level FlightAware ADS-B
Sun 12:40:26 PM 40.6674 -111.6580 305° West 456 525 38,000  Level FlightAware ADS-B
Sun 12:40:30 PM 40.6709 -111.6645 306° West 457 526 38,000  Level FlightAware ADS-B
Sun 12:40:57 PM 40.7046 -111.7270 305° West 459 528 38,000  Level FlightAware ADS-B
Sun 12:40:58 PM 40.7060 -111.7293 310° West 455 524 38,000  Level FlightAware ADS-B
Sun 12:41:27 PM 40.7417 -111.7950 306° West 461 531 38,000  Level FlightAware ADS-B
Sun 12:41:28 PM 40.7424 -111.7965 301° West 461 531 38,000  Level FlightAware ADS-B
Sun 12:41:58 PM 40.7805 -111.8670 306° West 462 532 38,000  Level FlightAware ADS-B
Sun 12:41:59 PM 40.7815 -111.8692 301° West 457 526 38,000  Level FlightAware ADS-B
Sun 12:42:30 PM 40.8194 -111.9390 306° West 463 533 38,000  Level FlightAware ADS-B
Sun 12:42:37 PM 40.8285 -111.9547 308° West 464 534 38,000  Level FlightAware ADS-B
Sun 12:42:56 PM 40.8559 -111.9970 311° West 465 535 38,000  Level FlightAware ADS-B
Sun 12:43:09 PM 40.8744 -112.0235 313° West 465 535 38,000  Level FlightAware ADS-B
Sun 12:43:17 PM 40.8859 -112.0390 315° West 465 535 38,000  Level FlightAware ADS-B
Sun 12:43:41 PM 40.9194 -112.0900 311° West 464 534 38,000  Level FlightAware ADS-B
Sun 12:43:47 PM 40.9280 -112.1040 309° West 465 535 38,000  Level FlightAware ADS-B
Sun 12:44:11 PM 40.9611 -112.1554 310° West 461 531 38,000  Level FlightAware ADS-B
Sun 12:44:17 PM 40.9705 -112.1700 310° West 466 536 38,000  Level FlightAware ADS-B
Sun 12:44:44 PM 41.0076 -112.2262 311° West 467 537 38,000  Level FlightAware ADS-B
Sun 12:44:48 PM 41.0136 -112.2350 312° West 466 536 38,000  Level FlightAware ADS-B
Sun 12:45:18 PM 41.0572 -112.3000 312° West 467 537 38,000  Level FlightAware ADS-B
Sun 12:45:23 PM 41.0637 -112.3096 312° West 461 531 38,000  Level FlightAware ADS-B
Sun 12:45:49 PM 41.1013 -112.3650 312° West 467 537 38,000  Level FlightAware ADS-B
Sun 12:45:53 PM 41.1072 -112.3736 312° West 462 532 38,000  Level FlightAware ADS-B
Sun 12:46:19 PM 41.1446 -112.4290 312° West 468 539 38,000  Level FlightAware ADS-B
Sun 12:46:24 PM 41.1520 -112.4398 312° West 463 533 38,000  Level FlightAware ADS-B
Sun 12:46:49 PM 41.1884 -112.4940 312° West 469 540 38,000  Level FlightAware ADS-B
Sun 12:47:04 PM 41.2105 -112.5267 312° West 464 534 38,000  Level FlightAware ADS-B
Sun 12:47:19 PM 41.2323 -112.5590 312° West 468 539 38,000  Level FlightAware ADS-B
Sun 12:47:35 PM 41.2546 -112.5924 312° West 469 540 38,000  Level FlightAware ADS-B
Sun 12:47:50 PM 41.2756 -112.6240 311° West 469 540 38,000  Level FlightAware ADS-B
Sun 12:48:15 PM 41.3111 -112.6771 312° West 468 539 38,000  Level FlightAware ADS-B
Sun 12:48:20 PM 41.3192 -112.6890 312° West 468 539 38,000  Level FlightAware ADS-B
Sun 12:48:45 PM 41.3549 -112.7429 311° West 468 539 38,000  Level FlightAware ADS-B
Sun 12:48:50 PM 41.3625 -112.7540 312° West 468 539 38,000  Level FlightAware ADS-B
Sun 12:49:21 PM 41.4058 -112.8200 311° West 468 539 38,000  Level FlightAware ADS-B
Sun 12:49:24 PM 41.4109 -112.8271 314° West 468 539 38,000  Level FlightAware ADS-B
Sun 12:49:55 PM 41.4543 -112.8932 311° West 467 537 38,000  Level FlightAware ADS-B
Sun 12:50:30 PM 41.5027 -112.9667 311° West 466 536 38,000  Level FlightAware ADS-B
Sun 12:50:49 PM 41.5320 -113.0110 311° West 468 539 38,000  Level FlightAware ADS-B
Sun 12:51:04 PM 41.5532 -113.0433 311° West 467 537 38,000  Level FlightAware ADS-B
Sun 12:51:20 PM 41.5763 -113.0790 311° West 468 539 38,000  Level FlightAware ADS-B
Sun 12:51:35 PM 41.5968 -113.1100 311° West 468 539 38,000  Level FlightAware ADS-B
Sun 12:52:01 PM 41.6338 -113.1660 312° West 468 539 38,000  Level FlightAware ADS-B
Sun 12:52:06 PM 41.6407 -113.1769 310° West 469 540 38,000  Level FlightAware ADS-B
Sun 12:52:36 PM 41.6840 -113.2432 311° West 469 540 38,000  Level FlightAware ADS-B
Sun 12:53:15 PM 41.7399 -113.3290 311° West 469 540 38,000  Level FlightAware ADS-B
Sun 12:53:45 PM 41.7826 -113.3951 311° West 470 541 38,000  Level FlightAware ADS-B
Sun 12:54:10 PM 41.8175 -113.4490 311° West 469 540 38,000  Level FlightAware ADS-B
Sun 12:54:15 PM 41.8246 -113.4596 312° West 469 540 38,000  Level FlightAware ADS-B
Sun 12:54:45 PM 41.8678 -113.5260 311° West 469 540 38,000  Level FlightAware ADS-B
Sun 12:55:15 PM 41.9096 -113.5916 311° West 469 540 38,000  Level FlightAware ADS-B
Sun 12:55:16 PM 41.9102 -113.5930 298° West 469 540 38,000  Level FlightAware ADS-B
Sun 12:55:45 PM 41.9520 -113.6571 311° West 469 540 38,000  Level FlightAware ADS-B
Sun 12:56:00 PM 41.9727 -113.6900 310° West 469 540 38,000  Level FlightAware ADS-B
Sun 12:56:42 PM 42.0319 -113.7820 311° West 469 540 38,000  Level FlightAware ADS-B
Sun 12:56:45 PM 42.0359 -113.7883 310° West 469 540 38,000  Level FlightAware ADS-B
Sun 12:57:12 PM 42.0754 -113.8500 311° West 468 539 38,000  Level FlightAware ADS-B
Sun 12:57:15 PM 42.0793 -113.8562 310° West 468 539 38,000  Level FlightAware ADS-B
Sun 12:57:52 PM 42.1306 -113.9370 311° West 467 537 38,000  Level FlightAware ADS-B
Sun 12:57:54 PM 42.1342 -113.9426 311° West 461 531 38,000  Level FlightAware ADS-B
Sun 12:58:24 PM 42.1697 -114.0142 304° West 456 525 38,000  Level FlightAware ADS-B
Sun 12:58:55 PM 42.2030 -114.0898 301° West 462 532 38,000  Level FlightAware ADS-B
Sun 12:59:25 PM 42.2375 -114.1630 302° West 458 527 38,000  Level FlightAware ADS-B
Sun 12:59:55 PM 42.2719 -114.2347 303° West 458 527 38,000  Level FlightAware ADS-B
Sun 01:00:06 PM 42.2848 -114.2610 304° West 461 531 38,000  Level FlightAware ADS-B
Sun 01:00:25 PM 42.3076 -114.3083 303° West 458 527 38,000  Level FlightAware ADS-B
Sun 01:00:37 PM 42.3208 -114.3360 303° West 462 532 38,000  Level FlightAware ADS-B
Sun 01:00:57 PM 42.3438 -114.3837 303° West 456 525 38,000  Level FlightAware ADS-B
Sun 01:01:36 PM 42.3894 -114.4792 303° West 455 524 38,000  Level FlightAware ADS-B
Sun 01:02:07 PM 42.4243 -114.5532 303° West 459 528 38,000  Level FlightAware ADS-B
Sun 01:02:37 PM 42.4579 -114.6251 302° West 458 527 38,000  Level FlightAware ADS-B
Sun 01:03:07 PM 42.4916 -114.6971 302° West 457 526 38,000  Level FlightAware ADS-B
Sun 01:03:47 PM 42.5372 -114.7948 302° West 457 526 38,000  Level FlightAware ADS-B
Sun 01:04:24 PM 42.5783 -114.8832 302° West 456 525 38,000  Level FlightAware ADS-B
Sun 01:04:58 PM 42.6164 -114.9650 302° West 456 525 38,000  Level FlightAware ADS-B
Sun 01:05:28 PM 42.6504 -115.0387 302° West 456 525 38,000  Level FlightAware ADS-B
Sun 01:06:29 PM 42.7170 -115.1840 302° West 455 524 38,000  Level FlightAware ADS-B
Sun 01:07:01 PM 42.7540 -115.2630 303° West 456 525 38,000  Level FlightAware ADS-B
Sun 01:07:36 PM 42.7920 -115.3470 302° West 456 525 38,000  Level FlightAware ADS-B
Sun 01:08:16 PM 42.8380 -115.4470 302° West 458 527 38,000  Level FlightAware ADS-B
Sun 01:08:50 PM 42.8750 -115.5300 301° West 459 528 38,000  Level FlightAware ADS-B
Sun 01:09:28 PM 42.9160 -115.6190 302° West 461 531 38,000  Level FlightAware ADS-B
Sun 01:10:00 PM 42.9540 -115.7040 301° West 464 534 38,000  Level FlightAware ADS-B
Sun 01:10:46 PM 43.0060 -115.8180 302° West 464 534 38,000  Level FlightAware ADS-B
Sun 01:11:05 PM 43.0270 -115.8650 301° West 465 535 38,000  Level FlightAware ADS-B
Sun 01:12:13 PM 43.1030 -116.0350 302° West 464 534 38,000  Level FlightAware ADS-B
Sun 01:12:49 PM 43.1430 -116.1250 301° West 465 535 38,000  Level FlightAware ADS-B
Sun 01:13:16 PM 43.1737 -116.1944 301° West 464 534 38,000  Level FlightAware ADS-B
Sun 01:13:47 PM 43.2065 -116.2688 301° West 463 533 38,000  Level FlightAware ADS-B
Sun 01:14:31 PM 43.2550 -116.3780 301° West 462 532 38,000  Level FlightAware ADS-B
Sun 01:15:00 PM 43.2880 -116.4530 301° West 460 529 38,000  Level FlightAware ADS-B
Sun 01:15:48 PM 43.3400 -116.5730 301° West 460 529 38,000  Level FlightAware ADS-B
Sun 01:16:27 PM 43.3821 -116.6691 301° West 461 531 38,000  Level FlightAware ADS-B
Sun 01:16:57 PM 43.4130 -116.7399 301° West 461 531 38,000  Level FlightAware ADS-B
Sun 01:17:36 PM 43.4585 -116.8447 301° West 461 531 38,000  Level FlightAware ADS-B
Sun 01:18:41 PM 43.5280 -117.0060 301° West 458 527 38,000  Level FlightAware ADS-B
Sun 01:19:26 PM 43.5780 -117.1210 301° West 455 524 38,000  Level FlightAware ADS-B
Sun 01:19:54 PM 43.6070 -117.1900 300° West 455 524 38,000  Level FlightAware ADS-B
Sun 01:20:36 PM 43.6510 -117.2940 300° West 452 520 38,000  Level FlightAware ADS-B
Sun 01:21:08 PM 43.6860 -117.3740 301° West 452 520 38,000  Level FlightAware ADS-B
Sun 01:21:48 PM 43.7270 -117.4720 300° West 450 518 38,000  Level FlightAware ADS-B
Sun 01:22:27 PM 43.7680 -117.5690 300° West 449 517 38,000  Level FlightAware ADS-B
Sun 01:23:00 PM 43.8030 -117.6510 301° West 449 517 38,000  Level FlightAware ADS-B
Sun 01:23:34 PM 43.8380 -117.7360 300° West 449 517 38,000  Level FlightAware ADS-B
Sun 01:24:26 PM 43.8920 -117.8640 300° West 453 521 38,000  Level FlightAware ADS-B
Sun 01:24:58 PM 43.9260 -117.9470 300° West 453 521 38,000  Level FlightAware ADS-B
Sun 01:25:34 PM 43.9630 -118.0360 300° West 451 519 38,000  Level FlightAware ADS-B
Sun 01:26:16 PM 44.0060 -118.1390 300° West 451 519 38,000  Level FlightAware ADS-B
Sun 01:26:48 PM 44.0400 -118.2210 300° West 454 522 38,000  Level FlightAware ADS-B
Sun 01:27:32 PM 44.0860 -118.3330 300° West 456 525 38,000  Level FlightAware ADS-B
Sun 01:28:04 PM 44.1200 -118.4140 300° West 458 527 38,000  Level FlightAware ADS-B
Sun 01:28:48 PM 44.1650 -118.5250 300° West 454 522 38,000  Level FlightAware ADS-B
Sun 01:29:32 PM 44.2110 -118.6390 299° West 450 518 38,000  Level FlightAware ADS-B
Sun 01:30:05 PM 44.2440 -118.7190 300° West 447 514 38,000  Level FlightAware ADS-B
Sun 01:30:45 PM 44.2850 -118.8210 299° West 446 513 38,000  Level FlightAware ADS-B
Sun 01:31:15 PM 44.3160 -118.8980 299° West 446 513 38,000  Level FlightAware ADS-B
Sun 01:32:15 PM 44.3760 -119.0480 299° West 449 517 38,000  Level FlightAware ADS-B
Sun 01:32:59 PM 44.4190 -119.1560 299° West 450 518 38,000  Level FlightAware ADS-B
Sun 01:33:31 PM 44.4530 -119.2410 299° West 452 520 38,000  Level FlightAware ADS-B
Sun 01:34:01 PM 44.4840 -119.3170 300° West 453 521 38,000  Level FlightAware ADS-B
Sun 01:34:49 PM 44.5310 -119.4380 299° West 453 521 38,000  Level FlightAware ADS-B
Sun 01:35:29 PM 44.5730 -119.5430 299° West 454 522 38,000  Level FlightAware ADS-B
Sun 01:36:36 PM 44.6430 -119.7140 300° West 459 528 38,000  Level FlightAware ADS-B
Sun 01:37:04 PM 44.6790 -119.7790 308° West 462 532 38,000  Level FlightAware ADS-B
Sun 01:37:48 PM 44.7360 -119.8880 306° West 462 532 38,000  Level FlightAware ADS-B
Sun 01:38:20 PM 44.7770 -119.9650 307° West 462 532 38,000  Level FlightAware ADS-B
Sun 01:38:58 PM 44.8250 -120.0560 307° West 460 529 38,000  Level FlightAware ADS-B
Sun 01:39:40 PM 44.8770 -120.1550 307° West 460 529 38,000  Level FlightAware ADS-B
Sun 01:40:03 PM 44.9050 -120.2070 307° West 459 528 38,000 -909 Level FlightAware ADS-B
Sun 01:40:46 PM 44.9590 -120.3110 306° West 462 532 37,000 -1,135 Descending FlightAware ADS-B
Sun 01:41:17 PM 44.9940 -120.3780 306° West 460 529 36,600 -312 Descending FlightAware ADS-B
Sun 01:42:03 PM 45.0430 -120.4740 306° West 460 529 36,600  Level FlightAware ADS-B
Sun 01:42:41 PM 45.0830 -120.5520 306° West 460 529 36,600  Level FlightAware ADS-B
Sun 01:43:18 PM 45.1220 -120.6290 306° West 460 529 36,600  Level FlightAware ADS-B
Sun 01:44:06 PM 45.1730 -120.7290 306° West 460 529 36,600  Level FlightAware ADS-B
Sun 01:44:55 PM 45.2260 -120.8310 306° West 460 529 36,600  Level FlightAware ADS-B
Sun 01:45:19 PM 45.2510 -120.8800 306° West 460 529 36,600  Level FlightAware ADS-B
Sun 01:45:55 PM 45.2890 -120.9550 306° West 460 529 36,600  Level FlightAware ADS-B
Sun 01:46:29 PM 45.3250 -121.0260 306° West 460 529 36,600 -9,894 Level FlightAware ADS-B
Sun 01:47:29 PM 45.4133 -121.2020 306° West 389 448 21,100 -14,492 Descending FlightAware ADS-B
Sun 01:47:34 PM 45.4173 -121.2140 295° West 387 445 20,900 -2,118 Descending FlightAware ADS-B
Sun 01:48:03 PM 45.4335 -121.2830 289° West 379 436 19,900 -2,034 Descending FlightAware ADS-B
Sun 01:48:33 PM 45.4478 -121.3550 286° West 371 427 18,900 -1,355 Descending FlightAware ADS-B
Sun 01:49:05 PM 45.4617 -121.4260 286° West 344 396 18,500 12,951 Descending FlightAware ADS-B
Sun 01:49:55 PM 45.5440 -121.4560 346° North 460 529 36,600 12,628 Climbing FlightAware ADS-B
Sun 01:50:31 PM 45.5830 -121.5310 307° West 460 529 36,600  Level FlightAware ADS-B
Sun 01:50:43 PM 45.5950 -121.5560 304° West 460 529 36,600 -24,566 Level FlightAware ADS-B
Sun 01:51:24 PM 45.5247 -121.6942 304° West 317 365 14,900 -13,235 Descending Seattle Center
Sun 01:52:25 PM 45.5325 -121.8128 275° West 302 348 14,100 -964 Descending Seattle Center
Sun 01:53:16 PM 45.5344 -121.9153 272° West 272 313 13,100 -984 Descending Seattle Center
Sun 01:53:26 PM 45.5367 -121.9217 296° West 280 322 13,100 -1,082 Level Seattle Center
Sun 01:54:17 PM 45.5522 -122.0314 281° West 281 323 12,000 -1,180 Descending Seattle Center
Sun 01:54:27 PM 45.5536 -122.0369 290° West 277 319 11,900 -984 Descending Seattle Center
Sun 01:55:18 PM 45.5733 -122.1339 286° West 273 314 11,000 -984 Descending Seattle Center
Sun 01:55:28 PM 45.5747 -122.1400 288° West 274 315 10,900 -984 Descending Seattle Center
Sun 01:56:19 PM 45.5964 -122.2356 288° West 268 308 10,000 -984 Descending Seattle Center
Sun 01:56:29 PM 45.5981 -122.2414 292° West 272 313 9,900 -1,100 Descending Seattle Center
Sun 01:57:19 PM 45.6161 -122.3325 286° West 251 289 8,900 -1,180 Descending Seattle Center
Sun 01:57:30 PM 45.6169 -122.3381 282° West 257 296 8,700 -1,180 Descending Seattle Center
Sun 01:58:20 PM 45.6353 -122.4264 287° West 249 287 7,700 -1,100 Descending Seattle Center
Sun 01:58:30 PM 45.6361 -122.4319 282° West 250 288 7,600 -885 Descending Seattle Center
Sun 01:59:21 PM 45.6592 -122.5125 292° West 239 275 6,800 -984 Descending Seattle Center
Sun 01:59:31 PM 45.6644 -122.5219 309° West 250 288 6,600 -900 Descending Seattle Center
Sun 02:00:21 PM 45.6917 -122.5981 297° West 221 254 5,900 -844 Descending Seattle Center
Sun 02:00:35 PM 45.6989 -122.6169 299° West 234 269 5,700 -885 Descending Seattle Center
Sun 02:01:22 PM 45.7192 -122.6703 299° West 199 229 5,000 -984 Descending Seattle Center
Sun 02:01:36 PM 45.7269 -122.6875 303° West 217 250 4,700 -1,000 Descending Seattle Center
Sun 02:02:22 PM 45.7461 -122.7397 298° West 201 231 4,000 -787 Descending Seattle Center
Sun 02:02:37 PM 45.7528 -122.7564 300° West 205 236 3,900 -197 Descending Seattle Center
Sun 02:03:23 PM 45.7569 -122.8158 276° West 202 232 3,800 -295 Descending Seattle Center
Sun 02:03:38 PM 45.7503 -122.8256 226° Southwest 212 244 3,600 -590 Descending Seattle Center
Sun 02:04:24 PM 45.7108 -122.8561 208° Southwest 196 226 3,200 -393 Descending Seattle Center
Sun 02:04:39 PM 45.7022 -122.8617 204° Southwest 200 230 3,200 -100 Level Seattle Center
Sun 02:05:24 PM 45.6694 -122.8111 133° Southeast 217 250 3,100 -295 Descending Seattle Center
Sun 02:05:40 PM 45.6650 -122.8006 121° Southeast 225 259 2,900 -1,082 Descending Seattle Center
Sun 02:06:25 PM 45.6400 -122.7397 120° Southeast 207 238 2,000 -1,082 Descending Seattle Center
Sun 02:06:41 PM 45.6378 -122.7278 105° East 212 244 1,800 -885 Descending Seattle Center
Sun 02:07:26 PM 45.6178 -122.6839 123° Southeast 154 177 1,100 -885 Descending Seattle Center
Sun 02:07:42 PM 45.6136 -122.6717 116° Southeast 195 224 900 -800 Descending Seattle Center
Sun 02:08:26 PM 45.5989 -122.6328 118° Southeast 141 162 300 -197 Descending Seattle Center
Sun 02:08:43 PM 45.5894 -122.6142 126° Southeast 191 220 700 1,412 Climbing Seattle Center

Login

Don't have an account? Register now (free) for customized features, flight alerts, and more!